MMPR/PVR METAR and TAF weather

Enter ICAO airport designator
Station Type Date Time Source
MMPR METAR 2020/11/27 13:49 UTC NOAA

MMPR 271349Z 05003KT 15SM FEW140 SCT250 19/18 A2991 RMK 8/038 RTS


Station Type Date Time Source
MMPR Decoded METAR 2020/11/27 13:49 UTC NOAA

Puerto Vallarta / Lic, Mexico (MMPR) 20-41N 105-15W
Nov 27, 2020 - 08:49 AM EST / 2020.11.27 1349 UTC
Wind: from the NE (050 degrees) at 3 MPH (3 KT):0
Visibility: 15 mile(s):0
Sky conditions: partly cloudy
Temperature: 66 F (19 C)
Dew Point: 64 F (18 C)
Relative Humidity: 93%
Pressure (altimeter): 29.91 in. Hg (1012 hPa)
ob: MMPR 271349Z 05003KT 15SM FEW140 SCT250 19/18 A2991 RMK 8/038 RTS
cycle: 14

Station Type Date Time Source
MMPR TAF 2020/11/27 12:18 UTC NOAA

TAF MMPR 271110Z 2712/2818 03005KT P6SM BKN250 TX30/2721Z TN19/2712Z
FM271700 20010KT P6SM SCT250
FM280300 02005KT P6SM SCT250
FM281600 22010KT P6SM SCT250

Example: see airport list